Time;durP1;ratioP1;P1;durP2;ratioP2;P2;SDS_P1;SDS_P2;PMS_P1;PMS_P2;Temp;Humidity;BMP_temperature;BMP_pressure;BME280_temperature;BME280_humidity;BME280_pressure;Samples;Min_cycle;Max_cycle;Signal;HPM_P1;HPM_P2
2023/09/18 00:02:25;;;;;;;5.95;5.43;;;20.60;99.90;;;;;;5084466;28;20098;-43
2023/09/18 00:05:00;;;;;;;6.57;5.97;;;20.60;99.90;;;;;;5085585;28;20048;-43
2023/09/18 00:07:25;;;;;;;6.60;5.95;;;20.60;99.90;;;;;;5085510;28;20118;-44
2023/09/18 00:09:57;;;;;;;6.57;5.97;;;20.60;99.90;;;;;;5084529;28;20099;-43
2023/09/18 00:12:23;;;;;;;7.30;6.65;;;20.60;99.90;;;;;;5084998;28;20028;-44
2023/09/18 00:14:49;;;;;;;6.97;6.25;;;20.60;99.90;;;;;;5085441;28;20180;-43
2023/09/18 00:17:16;;;;;;;7.13;5.95;;;20.50;99.90;;;;;;5085005;28;20038;-43
2023/09/18 00:19:42;;;;;;;6.78;6.18;;;20.50;99.90;;;;;;5085686;28;20031;-43
2023/09/18 00:22:11;;;;;;;8.07;7.10;;;20.50;99.90;;;;;;5084956;28;20044;-42
2023/09/18 00:24:37;;;;;;;6.80;6.20;;;20.60;99.90;;;;;;5084083;28;20607;-43
2023/09/18 00:27:03;;;;;;;7.30;6.60;;;20.60;99.90;;;;;;5084568;28;20119;-43
2023/09/18 00:29:28;;;;;;;7.03;6.00;;;20.50;99.90;;;;;;5085051;28;20399;-43
2023/09/18 00:31:54;;;;;;;6.47;5.88;;;20.50;99.90;;;;;;5084521;28;20028;-43
2023/09/18 00:34:20;;;;;;;7.32;6.72;;;20.50;99.90;;;;;;5084664;28;20080;-43
2023/09/18 00:36:45;;;;;;;6.90;5.80;;;20.50;99.90;;;;;;5085322;28;20153;-43
2023/09/18 00:39:11;;;;;;;6.50;5.90;;;20.50;99.90;;;;;;5084237;28;20024;-43
2023/09/18 00:41:37;;;;;;;6.88;6.18;;;20.50;99.90;;;;;;5085297;28;20127;-43
2023/09/18 00:44:03;;;;;;;6.85;6.25;;;20.50;99.90;;;;;;5084388;28;20024;-43
2023/09/18 00:46:28;;;;;;;6.57;5.55;;;20.50;99.90;;;;;;5084478;28;20055;-44
2023/09/18 00:48:57;;;;;;;6.68;5.88;;;20.50;99.90;;;;;;5085576;28;20032;-43
2023/09/18 00:51:23;;;;;;;6.32;5.72;;;20.50;99.90;;;;;;5085820;28;20017;-42
2023/09/18 00:53:48;;;;;;;7.50;6.90;;;20.50;99.90;;;;;;5082631;28;20027;-43
2023/09/18 00:56:15;;;;;;;7.70;6.78;;;20.50;99.90;;;;;;5084406;28;20020;-43
2023/09/18 00:58:41;;;;;;;7.28;6.65;;;20.50;99.90;;;;;;5084598;28;20067;-42
2023/09/18 01:01:08;;;;;;;8.07;7.28;;;20.50;99.90;;;;;;5084621;28;20062;-42
2023/09/18 01:03:34;;;;;;;8.25;7.45;;;20.50;99.90;;;;;;5084784;28;20063;-42
2023/09/18 01:06:05;;;;;;;7.63;6.47;;;20.50;99.90;;;;;;5083941;28;20701;-43
2023/09/18 01:08:31;;;;;;;7.05;6.45;;;20.50;99.90;;;;;;5084501;28;20043;-43
2023/09/18 01:11:05;;;;;;;8.10;7.30;;;20.50;99.90;;;;;;5085014;28;20020;-42
2023/09/18 01:13:38;;;;;;;8.02;7.32;;;20.50;99.90;;;;;;5083947;28;20026;-43
2023/09/18 01:16:14;;;;;;;6.88;6.25;;;20.50;99.90;;;;;;5084346;28;20063;-43
2023/09/18 01:18:51;;;;;;;7.65;6.95;;;20.50;99.90;;;;;;5084964;28;20531;-43
2023/09/18 01:21:20;;;;;;;8.43;6.85;;;20.50;99.90;;;;;;5085288;28;20026;-43
2023/09/18 01:23:45;;;;;;;6.28;5.65;;;20.40;99.90;;;;;;5088943;28;20067;-43
2023/09/18 01:26:11;;;;;;;6.82;6.18;;;20.50;99.90;;;;;;5088358;28;20048;-43
2023/09/18 01:28:37;;;;;;;6.50;5.90;;;20.50;99.90;;;;;;5087765;28;20063;-43
2023/09/18 01:31:03;;;;;;;7.50;6.75;;;20.50;99.90;;;;;;5088286;28;20028;-43
2023/09/18 01:33:33;;;;;;;9.48;7.38;;;20.50;99.90;;;;;;5088820;28;20412;-42
2023/09/18 01:36:00;;;;;;;7.53;6.82;;;20.50;99.90;;;;;;5087930;28;20030;-42
2023/09/18 01:38:26;;;;;;;7.60;6.90;;;20.40;99.90;;;;;;5088408;28;20027;-41
2023/09/18 01:40:53;;;;;;;8.68;6.90;;;20.50;99.90;;;;;;5088123;28;20023;-42
2023/09/18 01:43:19;;;;;;;7.65;6.95;;;20.50;99.90;;;;;;5088393;28;20700;-42
2023/09/18 01:45:46;;;;;;;7.65;6.85;;;20.40;99.90;;;;;;5088409;28;20107;-42
2023/09/18 01:48:11;;;;;;;7.93;7.13;;;20.50;99.90;;;;;;5087590;28;20040;-42
2023/09/18 01:50:40;;;;;;;7.43;6.68;;;20.50;99.90;;;;;;5088111;28;20413;-42
2023/09/18 01:53:05;;;;;;;8.00;7.30;;;20.40;99.90;;;;;;5088365;28;20085;-42
2023/09/18 01:55:32;;;;;;;7.82;6.78;;;20.50;99.90;;;;;;5087926;28;20020;-42
2023/09/18 01:57:58;;;;;;;7.40;6.43;;;20.50;99.90;;;;;;5087985;28;20371;-44
2023/09/18 02:00:24;;;;;;;6.95;6.22;;;20.50;99.90;;;;;;5088060;28;20025;-43
2023/09/18 02:02:50;;;;;;;7.45;6.35;;;20.50;99.90;;;;;;5087475;28;20060;-44
2023/09/18 02:05:15;;;;;;;7.28;6.57;;;20.50;99.90;;;;;;5087220;28;20102;-41
2023/09/18 02:07:41;;;;;;;6.78;6.18;;;20.50;99.90;;;;;;5088158;28;20040;-42
2023/09/18 02:10:08;;;;;;;8.00;6.57;;;20.50;99.90;;;;;;5086045;28;20563;-43
2023/09/18 02:12:33;;;;;;;7.55;6.85;;;20.50;99.90;;;;;;5087937;28;20060;-43
2023/09/18 02:15:03;;;;;;;7.57;6.82;;;20.50;99.90;;;;;;5087904;28;20031;-44
2023/09/18 02:17:29;;;;;;;7.50;6.70;;;20.50;99.90;;;;;;5087380;28;20040;-43
2023/09/18 02:20:18;;;;;;;6.65;6.05;;;20.50;99.90;;;;;;5087710;28;20095;-43
2023/09/18 02:22:46;;;;;;;6.47;5.88;;;20.50;99.90;;;;;;5079099;28;20034;-43
2023/09/18 02:25:17;;;;;;;6.63;5.82;;;20.50;99.90;;;;;;5086390;28;20032;-42
2023/09/18 02:27:43;;;;;;;6.53;5.88;;;20.50;99.90;;;;;;5088066;28;20186;-42
2023/09/18 02:30:11;;;;;;;6.85;6.15;;;20.50;99.90;;;;;;5086442;28;20115;-42
2023/09/18 02:32:37;;;;;;;6.90;6.18;;;20.50;99.90;;;;;;5087195;28;20473;-43
2023/09/18 02:35:07;;;;;;;6.15;5.55;;;20.50;99.90;;;;;;5086526;28;20020;-44
2023/09/18 02:37:32;;;;;;;7.10;6.43;;;20.50;99.90;;;;;;5086455;28;20443;-42
2023/09/18 02:39:58;;;;;;;6.72;6.03;;;20.50;99.90;;;;;;5087577;28;20107;-43
2023/09/18 02:42:23;;;;;;;8.13;6.72;;;20.50;99.90;;;;;;5086933;28;20035;-43
2023/09/18 02:44:49;;;;;;;7.05;6.40;;;20.50;99.90;;;;;;5086487;28;20027;-43
2023/09/18 02:47:14;;;;;;;7.60;6.80;;;20.60;99.90;;;;;;5086693;28;20096;-43
2023/09/18 02:49:40;;;;;;;7.03;6.32;;;20.60;99.90;;;;;;5087277;28;20024;-42
2023/09/18 02:52:06;;;;;;;8.52;6.50;;;20.60;99.90;;;;;;5085577;28;20110;-43
2023/09/18 02:54:31;;;;;;;7.18;6.47;;;20.60;99.90;;;;;;5087467;28;20024;-43
2023/09/18 02:56:57;;;;;;;9.73;7.47;;;20.60;99.90;;;;;;5086896;28;20020;-43
2023/09/18 02:59:22;;;;;;;7.28;6.40;;;20.60;99.90;;;;;;5086766;28;20039;-43
2023/09/18 03:01:49;;;;;;;7.07;6.32;;;20.60;99.90;;;;;;5087013;28;20040;-43
2023/09/18 03:04:15;;;;;;;8.02;6.78;;;20.60;99.90;;;;;;5087131;28;20430;-42
2023/09/18 03:06:41;;;;;;;8.68;6.90;;;20.60;99.90;;;;;;5086533;28;20096;-43
2023/09/18 03:09:06;;;;;;;7.70;7.00;;;20.60;99.90;;;;;;5086315;28;20452;-42
2023/09/18 03:11:32;;;;;;;8.40;7.60;;;20.60;99.90;;;;;;5086405;28;20012;-42
2023/09/18 03:13:57;;;;;;;7.18;6.50;;;20.60;99.90;;;;;;5086557;28;20139;-42
2023/09/18 03:16:26;;;;;;;7.13;6.47;;;20.60;99.90;;;;;;5086510;28;20106;-42
2023/09/18 03:18:55;;;;;;;7.43;6.65;;;20.60;99.90;;;;;;5083348;28;20043;-43
2023/09/18 03:21:20;;;;;;;7.50;6.80;;;20.60;99.90;;;;;;5085910;28;20468;-43
2023/09/18 03:23:46;;;;;;;8.18;6.53;;;20.60;99.90;;;;;;5086264;28;20027;-43
2023/09/18 03:26:14;;;;;;;6.80;6.10;;;20.60;99.90;;;;;;5086258;28;20024;-42
2023/09/18 03:28:40;;;;;;;7.57;6.05;;;20.60;99.90;;;;;;5085884;28;20040;-41
2023/09/18 03:31:06;;;;;;;7.88;6.03;;;20.70;99.90;;;;;;5086718;28;20027;-42
2023/09/18 03:33:32;;;;;;;7.03;6.32;;;20.70;99.90;;;;;;5085978;28;20129;-42
2023/09/18 03:35:58;;;;;;;8.45;6.15;;;20.70;99.90;;;;;;5086676;28;20763;-43
2023/09/18 03:38:26;;;;;;;7.88;6.55;;;20.70;99.90;;;;;;5085894;28;20031;-42
2023/09/18 03:40:52;;;;;;;7.15;6.38;;;20.70;99.90;;;;;;5085628;28;20451;-42
2023/09/18 03:43:18;;;;;;;6.80;6.15;;;20.70;99.90;;;;;;5085659;28;20029;-43
2023/09/18 03:45:43;;;;;;;8.32;6.03;;;20.70;99.90;;;;;;5085518;28;20048;-42
2023/09/18 03:48:12;;;;;;;6.97;6.05;;;20.70;99.90;;;;;;5084214;28;20558;-42
2023/09/18 03:50:38;;;;;;;8.95;6.53;;;20.70;99.90;;;;;;5085593;28;20107;-42
2023/09/18 03:53:04;;;;;;;6.63;5.93;;;20.70;99.90;;;;;;5085565;28;20107;-42
2023/09/18 03:55:30;;;;;;;6.18;5.60;;;20.80;99.90;;;;;;5085004;28;20108;-44
2023/09/18 03:57:55;;;;;;;6.00;5.43;;;20.80;99.90;;;;;;5085957;28;20031;-43
2023/09/18 04:00:39;;;;;;;6.43;5.80;;;20.80;99.90;;;;;;5084887;28;20020;-42
2023/09/18 04:03:09;;;;;;;6.15;5.57;;;20.80;99.90;;;;;;5083752;28;20056;-43
2023/09/18 04:05:34;;;;;;;5.93;5.43;;;20.80;99.90;;;;;;5085160;28;20028;-41
2023/09/18 04:08:00;;;;;;;6.53;5.93;;;20.70;99.90;;;;;;5085622;28;20694;-43
2023/09/18 04:10:28;;;;;;;6.35;5.75;;;20.70;99.90;;;;;;5084956;28;20066;-42
2023/09/18 04:12:54;;;;;;;6.45;5.85;;;20.70;99.90;;;;;;5085780;28;20028;-43
2023/09/18 04:15:23;;;;;;;7.18;5.93;;;20.70;99.90;;;;;;5085152;28;20372;-42
2023/09/18 04:17:48;;;;;;;6.68;5.97;;;20.70;99.90;;;;;;5085324;28;20035;-43
2023/09/18 04:20:14;;;;;;;6.00;5.25;;;20.70;99.90;;;;;;5084726;28;20027;-44
2023/09/18 04:22:49;;;;;;;6.60;5.82;;;20.70;99.90;;;;;;5085101;28;20123;-42
2023/09/18 04:25:16;;;;;;;6.82;5.50;;;20.70;99.90;;;;;;5084602;28;20351;-42
2023/09/18 04:27:41;;;;;;;7.05;5.88;;;20.70;99.90;;;;;;5085578;28;20119;-42
2023/09/18 04:30:09;;;;;;;6.80;6.10;;;20.70;99.90;;;;;;5084215;28;20450;-43
2023/09/18 04:32:36;;;;;;;7.22;5.43;;;20.70;99.90;;;;;;5085470;28;20417;-42
2023/09/18 04:35:04;;;;;;;6.28;5.65;;;20.60;99.90;;;;;;5084637;28;20016;-43
2023/09/18 04:37:30;;;;;;;6.30;5.70;;;20.60;99.90;;;;;;5084772;28;20032;-43
2023/09/18 04:39:57;;;;;;;6.10;5.50;;;20.60;99.90;;;;;;5085315;28;20057;-43
2023/09/18 04:42:23;;;;;;;6.40;5.00;;;20.60;99.90;;;;;;5085012;28;20024;-43
2023/09/18 04:44:49;;;;;;;5.65;5.15;;;20.60;99.90;;;;;;5084397;28;20034;-44
2023/09/18 04:47:15;;;;;;;5.20;4.40;;;20.60;99.90;;;;;;5084908;28;20040;-42
2023/09/18 04:49:40;;;;;;;6.78;4.75;;;20.60;99.90;;;;;;5084457;28;20034;-43
2023/09/18 04:52:06;;;;;;;5.15;4.65;;;20.60;99.90;;;;;;5083988;28;20043;-42
2023/09/18 04:54:31;;;;;;;6.53;5.20;;;20.60;99.90;;;;;;5085334;28;20028;-43
2023/09/18 04:56:57;;;;;;;5.10;4.60;;;20.50;99.90;;;;;;5084486;28;20032;-43
2023/09/18 04:59:25;;;;;;;6.38;5.10;;;20.50;99.90;;;;;;5084936;28;20484;-43
2023/09/18 05:01:51;;;;;;;6.50;4.72;;;20.60;99.90;;;;;;5084216;28;20032;-43
2023/09/18 05:04:18;;;;;;;6.47;4.45;;;20.50;99.90;;;;;;5084085;28;20028;-44
2023/09/18 05:06:46;;;;;;;6.80;4.55;;;20.60;99.90;;;;;;5084550;28;20539;-47
2023/09/18 05:09:12;;;;;;;5.80;5.05;;;20.60;99.90;;;;;;5083959;28;20118;-43
2023/09/18 05:11:41;;;;;;;6.28;5.13;;;20.60;99.90;;;;;;5084721;28;20024;-43
2023/09/18 05:14:07;;;;;;;6.18;4.65;;;20.60;99.90;;;;;;5083847;28;20020;-42
2023/09/18 05:16:32;;;;;;;6.40;4.78;;;20.60;99.90;;;;;;5084763;28;20039;-44
2023/09/18 05:18:59;;;;;;;6.47;4.68;;;20.70;99.90;;;;;;5083824;28;20051;-43
2023/09/18 05:21:26;;;;;;;6.90;4.80;;;20.60;99.90;;;;;;5084600;28;20032;-42
2023/09/18 05:23:53;;;;;;;5.22;4.72;;;20.70;99.90;;;;;;5084904;28;20647;-43
2023/09/18 05:26:19;;;;;;;5.50;5.00;;;20.60;99.90;;;;;;5082811;28;20024;-43
2023/09/18 05:28:44;;;;;;;5.78;4.80;;;20.60;99.90;;;;;;5084936;28;20089;-43
2023/09/18 05:31:10;;;;;;;5.13;4.63;;;20.60;99.90;;;;;;5083581;28;20024;-44
2023/09/18 05:33:35;;;;;;;5.68;5.07;;;20.60;99.90;;;;;;5083645;28;20024;-43
2023/09/18 05:36:01;;;;;;;6.93;5.60;;;20.60;99.90;;;;;;5083511;28;20031;-42
2023/09/18 05:38:26;;;;;;;5.13;4.47;;;20.60;99.90;;;;;;5084680;28;20032;-43
2023/09/18 05:41:01;;;;;;;7.50;4.43;;;20.60;99.90;;;;;;5083829;28;20582;-43
2023/09/18 05:43:27;;;;;;;5.00;4.50;;;20.60;99.90;;;;;;5084370;28;20070;-43
2023/09/18 05:45:52;;;;;;;5.53;4.40;;;20.60;99.90;;;;;;5084715;28;20032;-43
2023/09/18 05:48:19;;;;;;;4.68;4.22;;;20.60;99.90;;;;;;5083301;28;20089;-43
2023/09/18 05:50:44;;;;;;;4.38;3.97;;;20.70;99.90;;;;;;5084483;28;20600;-43
2023/09/18 05:53:10;;;;;;;4.93;4.40;;;20.60;99.90;;;;;;5084096;28;20339;-43
2023/09/18 05:55:36;;;;;;;5.07;4.30;;;20.60;99.90;;;;;;5084129;28;20020;-43
2023/09/18 05:58:04;;;;;;;6.47;4.70;;;20.60;99.90;;;;;;5083757;28;20056;-44
2023/09/18 06:00:30;;;;;;;7.90;5.10;;;20.60;99.90;;;;;;5084761;28;20032;-43
2023/09/18 06:02:56;;;;;;;5.28;4.65;;;20.60;99.90;;;;;;5083460;28;20047;-43
2023/09/18 06:05:22;;;;;;;5.70;4.30;;;20.60;99.90;;;;;;5084270;28;20726;-43
2023/09/18 06:07:49;;;;;;;5.65;4.40;;;20.60;99.90;;;;;;5084541;28;20027;-43
2023/09/18 06:10:15;;;;;;;4.78;4.35;;;20.60;99.90;;;;;;5086956;28;20043;-43
2023/09/18 06:12:46;;;;;;;4.65;4.10;;;20.60;99.90;;;;;;5087799;28;20024;-43
2023/09/18 06:15:12;;;;;;;5.90;4.15;;;20.70;99.90;;;;;;5076149;28;20181;-44
2023/09/18 06:17:43;;;;;;;6.75;4.47;;;20.60;99.90;;;;;;5085437;28;20103;-43
2023/09/18 06:20:10;;;;;;;5.55;4.45;;;20.70;99.90;;;;;;5086256;28;20376;-43
2023/09/18 06:22:40;;;;;;;4.95;4.30;;;20.70;99.90;;;;;;5086368;28;20036;-42
2023/09/18 06:25:07;;;;;;;5.35;4.50;;;20.70;99.90;;;;;;5083247;28;20016;-43
2023/09/18 06:27:39;;;;;;;6.72;4.40;;;20.70;99.90;;;;;;5087043;28;20036;-42
2023/09/18 06:30:13;;;;;;;6.65;4.30;;;20.80;99.90;;;;;;5085846;28;20035;-43
2023/09/18 06:32:39;;;;;;;4.45;4.00;;;20.80;99.90;;;;;;5087212;28;20020;-42
2023/09/18 06:35:05;;;;;;;5.35;4.43;;;20.80;99.90;;;;;;5085805;28;20487;-43
2023/09/18 06:37:30;;;;;;;7.70;4.28;;;20.80;99.90;;;;;;5086301;28;20035;-43
2023/09/18 06:39:59;;;;;;;5.25;4.75;;;20.80;99.90;;;;;;5086447;28;20505;-42
2023/09/18 06:42:28;;;;;;;4.68;4.10;;;20.90;99.90;;;;;;5066340;28;20031;-42
2023/09/18 06:44:53;;;;;;;6.90;5.43;;;20.90;99.90;;;;;;5080560;28;20024;-43
2023/09/18 06:47:19;;;;;;;6.68;4.60;;;20.90;99.90;;;;;;5085799;28;20028;-43
2023/09/18 06:49:44;;;;;;;4.75;4.35;;;20.90;99.90;;;;;;5086918;28;20119;-44
2023/09/18 06:52:10;;;;;;;4.93;4.30;;;20.90;99.90;;;;;;5086008;28;20043;-43
2023/09/18 06:54:36;;;;;;;3.90;3.60;;;20.90;99.90;;;;;;5086520;28;20020;-43
2023/09/18 06:57:03;;;;;;;3.88;3.58;;;20.90;99.90;;;;;;5085902;28;20028;-43
2023/09/18 06:59:29;;;;;;;4.75;3.47;;;21.00;99.90;;;;;;5086254;28;20078;-42
2023/09/18 07:01:55;;;;;;;4.68;4.03;;;21.00;99.90;;;;;;5087462;28;20020;-42
2023/09/18 07:04:21;;;;;;;5.75;4.35;;;21.00;99.90;;;;;;5086332;28;20058;-44
2023/09/18 07:06:47;;;;;;;5.00;4.50;;;21.00;99.90;;;;;;5086485;28;20052;-43
2023/09/18 07:09:13;;;;;;;7.05;4.60;;;21.00;99.90;;;;;;5087065;28;20085;-43
2023/09/18 07:11:39;;;;;;;5.32;3.63;;;21.00;99.90;;;;;;5082465;28;20028;-43
2023/09/18 07:14:06;;;;;;;4.30;3.90;;;21.00;99.90;;;;;;5086350;28;20027;-43
2023/09/18 07:16:33;;;;;;;3.75;3.45;;;21.10;99.90;;;;;;5086522;28;20031;-43
2023/09/18 07:18:59;;;;;;;4.57;3.33;;;21.10;99.90;;;;;;5085994;28;20031;-43
2023/09/18 07:21:25;;;;;;;4.72;3.47;;;21.10;99.90;;;;;;5086982;28;20028;-43
2023/09/18 07:23:51;;;;;;;3.53;3.22;;;21.10;99.90;;;;;;5087033;28;20020;-44
2023/09/18 07:26:16;;;;;;;4.07;3.10;;;21.10;99.90;;;;;;5085211;28;20583;-42
2023/09/18 07:28:44;;;;;;;3.03;2.58;;;21.10;99.90;;;;;;5086306;28;20476;-43
2023/09/18 07:31:12;;;;;;;4.15;2.53;;;21.10;99.90;;;;;;5085814;28;20445;-42
2023/09/18 07:33:37;;;;;;;3.13;2.53;;;21.20;99.90;;;;;;5086057;28;20054;-43
2023/09/18 07:36:06;;;;;;;3.50;2.42;;;21.20;99.90;;;;;;5086060;28;20485;-42
2023/09/18 07:38:31;;;;;;;2.70;2.35;;;21.20;99.90;;;;;;5086827;28;20409;-43
2023/09/18 07:40:57;;;;;;;2.90;2.20;;;21.20;99.90;;;;;;5084841;28;20020;-44
2023/09/18 07:43:24;;;;;;;2.53;2.33;;;21.30;99.90;;;;;;5085817;28;20026;-43
2023/09/18 07:45:50;;;;;;;3.50;2.70;;;21.20;99.90;;;;;;5085793;28;20016;-43
2023/09/18 07:48:20;;;;;;;2.50;2.30;;;21.20;99.90;;;;;;5084491;28;20024;-44
2023/09/18 07:50:49;;;;;;;2.25;2.05;;;21.20;99.90;;;;;;5086304;28;20046;-43
2023/09/18 07:53:15;;;;;;;3.78;2.35;;;21.20;99.90;;;;;;5085589;28;20031;-43
2023/09/18 07:55:41;;;;;;;2.50;2.30;;;21.20;99.90;;;;;;5085562;28;20016;-43
2023/09/18 07:58:06;;;;;;;2.20;2.00;;;21.20;99.90;;;;;;5085299;28;20027;-44
2023/09/18 08:00:33;;;;;;;2.08;1.88;;;21.20;99.90;;;;;;5086481;28;20021;-43
2023/09/18 08:03:00;;;;;;;2.38;2.17;;;21.20;99.90;;;;;;5085023;28;20044;-44
2023/09/18 08:05:31;;;;;;;2.72;2.25;;;21.20;99.90;;;;;;5085482;28;20020;-45
2023/09/18 08:07:58;;;;;;;2.53;2.05;;;21.20;99.90;;;;;;5084660;28;20036;-45
2023/09/18 08:10:27;;;;;;;2.15;1.95;;;21.20;99.90;;;;;;5085567;28;20027;-43
2023/09/18 08:12:53;;;;;;;2.35;2.10;;;21.20;99.90;;;;;;5085483;28;20024;-43
2023/09/18 08:15:22;;;;;;;4.40;2.08;;;21.20;99.90;;;;;;5090948;28;20031;-43
2023/09/18 08:17:50;;;;;;;4.85;1.95;;;21.20;99.90;;;;;;5086676;28;20567;-44
2023/09/18 08:20:16;;;;;;;1.77;1.60;;;21.20;99.90;;;;;;5089279;28;20568;-44
2023/09/18 08:22:44;;;;;;;2.08;1.88;;;21.30;99.90;;;;;;5092348;28;20370;-44
2023/09/18 08:25:10;;;;;;;2.60;1.90;;;21.30;99.90;;;;;;5081342;28;20380;-44
2023/09/18 08:27:44;;;;;;;3.00;2.00;;;21.40;99.90;;;;;;5089341;28;20127;-43
2023/09/18 08:30:11;;;;;;;2.63;1.77;;;21.40;99.90;;;;;;5089970;28;20024;-42
2023/09/18 08:32:37;;;;;;;1.70;1.60;;;21.40;99.90;;;;;;5085535;28;20027;-44
2023/09/18 08:35:09;;;;;;;2.50;2.15;;;21.40;99.90;;;;;;5093368;28;20554;-42
2023/09/18 08:37:35;;;;;;;2.72;1.77;;;21.40;99.90;;;;;;5096131;28;20047;-42
2023/09/18 08:40:00;;;;;;;1.70;1.60;;;21.50;99.90;;;;;;5083847;28;20074;-44
2023/09/18 08:42:31;;;;;;;1.77;1.67;;;21.50;99.90;;;;;;5084829;28;20039;-44
2023/09/18 08:44:59;;;;;;;1.67;1.52;;;21.50;99.90;;;;;;5084528;28;20024;-48
2023/09/18 08:47:26;;;;;;;1.75;1.48;;;21.50;99.90;;;;;;5083086;28;20488;-43
2023/09/18 08:49:54;;;;;;;2.70;1.70;;;21.60;99.90;;;;;;5085308;28;20031;-43
2023/09/18 08:52:20;;;;;;;1.70;1.52;;;21.60;99.90;;;;;;5084270;28;20130;-43
2023/09/18 08:54:46;;;;;;;1.67;1.38;;;21.60;99.90;;;;;;5085105;28;20024;-44
2023/09/18 08:57:14;;;;;;;3.10;1.40;;;21.70;99.90;;;;;;5083841;28;20434;-43
2023/09/18 08:59:41;;;;;;;2.03;1.63;;;21.70;99.90;;;;;;5085375;28;20024;-43
2023/09/18 09:02:11;;;;;;;1.95;1.73;;;21.70;99.90;;;;;;5084460;28;20035;-43
2023/09/18 09:04:38;;;;;;;1.65;1.48;;;21.70;99.90;;;;;;5083941;28;20097;-42
2023/09/18 09:07:04;;;;;;;3.30;1.50;;;21.70;99.90;;;;;;5084333;28;20363;-42
2023/09/18 09:09:30;;;;;;;2.10;1.35;;;21.80;99.90;;;;;;5085352;28;20481;-43
2023/09/18 09:11:56;;;;;;;1.40;1.30;;;21.80;99.90;;;;;;5084732;28;20450;-42
2023/09/18 09:14:27;;;;;;;2.67;1.70;;;21.80;99.90;;;;;;5085036;28;20081;-43
2023/09/18 09:16:54;;;;;;;1.50;1.40;;;21.80;99.90;;;;;;5084502;28;20020;-42
2023/09/18 09:19:29;;;;;;;1.75;1.58;;;21.80;99.90;;;;;;5083198;28;20363;-43
2023/09/18 09:21:56;;;;;;;2.13;1.60;;;21.80;99.90;;;;;;5083910;28;20151;-43
2023/09/18 09:24:42;;;;;;;1.98;1.50;;;21.80;99.90;;;;;;5083954;28;20020;-43
2023/09/18 09:27:09;;;;;;;3.22;1.75;;;21.80;99.90;;;;;;5083644;28;20056;-43
2023/09/18 09:29:35;;;;;;;1.50;1.33;;;21.80;99.90;;;;;;5084391;28;20102;-43
2023/09/18 09:32:19;;;;;;;2.35;1.70;;;21.80;99.90;;;;;;5083665;28;20269;-43
2023/09/18 09:34:46;;;;;;;1.75;1.50;;;21.80;99.90;;;;;;5083155;28;20020;-43
2023/09/18 09:37:11;;;;;;;2.17;1.70;;;21.90;99.90;;;;;;5083477;28;20670;-43
2023/09/18 09:39:50;;;;;;;1.50;1.40;;;22.00;99.90;;;;;;5083246;28;20074;-43
2023/09/18 09:42:24;;;;;;;2.13;1.70;;;22.10;99.90;;;;;;5074902;28;20139;-43
2023/09/18 09:45:05;;;;;;;2.63;1.55;;;22.20;99.90;;;;;;5087491;28;20023;-43
2023/09/18 09:47:35;;;;;;;3.78;1.80;;;22.20;99.90;;;;;;5078462;28;20048;-43
2023/09/18 09:50:10;;;;;;;2.05;1.45;;;22.30;99.90;;;;;;5088222;28;20048;-43
2023/09/18 09:52:42;;;;;;;2.83;1.45;;;22.30;99.90;;;;;;5090833;28;20032;-42
2023/09/18 09:55:28;;;;;;;3.00;1.40;;;22.30;99.90;;;;;;5093286;28;20043;-43
2023/09/18 09:57:59;;;;;;;1.85;1.30;;;22.30;99.90;;;;;;5082842;28;20089;-42
2023/09/18 10:00:55;;;;;;;1.23;1.02;;;22.20;99.90;;;;;;5087793;28;20694;-44
2023/09/18 10:03:20;;;;;;;1.58;1.05;;;22.30;99.90;;;;;;5086462;27;20055;-44
2023/09/18 10:05:50;;;;;;;3.30;1.27;;;22.30;99.90;;;;;;5076856;28;20081;-43
2023/09/18 10:08:22;;;;;;;1.50;1.30;;;22.40;99.90;;;;;;5086554;28;20048;-43
2023/09/18 10:10:54;;;;;;;1.63;1.10;;;22.40;99.90;;;;;;5087576;28;20074;-43
2023/09/18 10:13:32;;;;;;;1.58;1.40;;;22.40;99.90;;;;;;5087020;28;20498;-42
2023/09/18 10:16:02;;;;;;;1.10;1.00;;;22.50;99.90;;;;;;5087169;28;20036;-43
2023/09/18 10:18:59;;;;;;;1.52;1.42;;;22.60;99.90;;;;;;5087624;28;20028;-43
2023/09/18 10:21:48;;;;;;;2.30;1.23;;;22.80;99.90;;;;;;5082093;28;20123;-42
2023/09/18 10:24:41;;;;;;;2.03;1.30;;;22.90;99.90;;;;;;5087324;28;20039;-43
2023/09/18 10:27:08;;;;;;;1.42;1.30;;;22.90;99.90;;;;;;5086631;28;20743;-43
2023/09/18 10:29:36;;;;;;;1.90;1.70;;;22.80;99.90;;;;;;5086975;28;20047;-44
2023/09/18 10:32:07;;;;;;;2.40;1.88;;;22.80;99.90;;;;;;5086499;28;20098;-43
2023/09/18 10:34:34;;;;;;;3.22;1.60;;;22.80;99.90;;;;;;5087247;28;20081;-44
2023/09/18 10:37:05;;;;;;;3.25;1.73;;;22.80;99.90;;;;;;5086571;28;20074;-43
2023/09/18 10:39:34;;;;;;;3.08;1.92;;;22.90;99.90;;;;;;5087670;28;20086;-43
2023/09/18 10:42:02;;;;;;;3.40;1.98;;;23.00;99.90;;;;;;5087096;28;20065;-44
2023/09/18 10:44:28;;;;;;;2.58;2.00;;;23.10;99.90;;;;;;5087064;28;20028;-43
2023/09/18 10:46:55;;;;;;;2.90;2.00;;;23.10;99.90;;;;;;5087458;28;20020;-44
2023/09/18 10:49:24;;;;;;;2.95;2.08;;;23.00;99.90;;;;;;5086377;28;20127;-43
2023/09/18 10:51:54;;;;;;;2.60;1.90;;;22.90;99.90;;;;;;5086591;28;20417;-43
2023/09/18 10:54:24;;;;;;;2.67;2.20;;;22.80;99.90;;;;;;5085922;28;20016;-43
2023/09/18 10:56:51;;;;;;;2.53;1.80;;;22.80;99.90;;;;;;5086297;28;20036;-43
2023/09/18 10:59:17;;;;;;;1.92;1.67;;;22.70;99.90;;;;;;5082561;28;20807;-43
2023/09/18 11:01:44;;;;;;;2.17;1.98;;;22.80;99.90;;;;;;5087444;28;20024;-42
2023/09/18 11:04:10;;;;;;;2.42;1.85;;;22.90;99.90;;;;;;5085118;28;20040;-42
2023/09/18 11:06:54;;;;;;;2.28;1.67;;;22.90;99.90;;;;;;5086800;28;20028;-43
2023/09/18 11:09:27;;;;;;;2.88;2.00;;;22.90;99.90;;;;;;5086583;28;20632;-43
2023/09/18 11:11:58;;;;;;;4.82;2.53;;;23.00;99.90;;;;;;5087069;28;20016;-43
2023/09/18 11:14:45;;;;;;;2.85;2.22;;;23.00;99.90;;;;;;5086999;28;20117;-43
2023/09/18 11:17:33;;;;;;;5.13;2.20;;;23.00;99.90;;;;;;5085878;28;20468;-43
2023/09/18 11:20:28;;;;;;;2.28;1.98;;;23.10;99.90;;;;;;5082913;28;20032;-44
2023/09/18 11:23:12;;;;;;;6.03;1.98;;;23.00;99.90;;;;;;5081911;28;20040;-42
2023/09/18 11:25:45;;;;;;;2.17;1.92;;;22.90;99.90;;;;;;5075440;28;20330;-44
2023/09/18 11:28:30;;;;;;;3.15;1.83;;;22.90;99.90;;;;;;5085888;28;20486;-43
2023/09/18 11:31:01;;;;;;;2.53;2.00;;;22.80;99.90;;;;;;5076681;28;20027;-44
2023/09/18 11:33:31;;;;;;;2.37;1.80;;;22.80;99.90;;;;;;5086759;28;20465;-45
2023/09/18 11:35:57;;;;;;;2.08;1.90;;;22.90;99.90;;;;;;5074662;28;20107;-44
2023/09/18 11:38:23;;;;;;;2.28;2.08;;;22.80;99.90;;;;;;5086222;28;20814;-44
2023/09/18 11:40:49;;;;;;;2.70;2.25;;;22.80;99.90;;;;;;5086575;28;20023;-43
2023/09/18 11:43:26;;;;;;;4.07;2.30;;;22.80;99.90;;;;;;5085914;28;20081;-43
2023/09/18 11:46:03;;;;;;;2.65;2.10;;;22.80;99.90;;;;;;5082264;28;20024;-43
2023/09/18 11:48:29;;;;;;;4.32;2.28;;;22.80;99.90;;;;;;5086187;28;20657;-43
2023/09/18 11:50:59;;;;;;;3.30;2.15;;;22.90;99.90;;;;;;5086126;28;20020;-43
2023/09/18 11:53:27;;;;;;;2.95;2.10;;;23.00;99.90;;;;;;5085802;28;20035;-43
2023/09/18 11:55:53;;;;;;;2.67;2.22;;;23.00;99.90;;;;;;5086125;28;20428;-43
2023/09/18 11:58:23;;;;;;;5.63;2.45;;;23.00;99.90;;;;;;5085802;28;20024;-43
2023/09/18 12:00:49;;;;;;;5.45;2.67;;;23.00;99.90;;;;;;5085065;28;20031;-43
2023/09/18 12:03:25;;;;;;;4.50;2.53;;;23.00;99.90;;;;;;5085465;28;20044;-42
2023/09/18 12:05:59;;;;;;;4.53;2.25;;;23.00;99.90;;;;;;5085316;28;20115;-43
2023/09/18 12:08:29;;;;;;;4.22;2.70;;;22.90;99.90;;;;;;5065201;28;20033;-44
2023/09/18 12:10:55;;;;;;;3.15;2.40;;;22.90;99.90;;;;;;5081096;28;20092;-44
2023/09/18 12:13:24;;;;;;;3.20;2.28;;;22.80;99.90;;;;;;5084662;28;20801;-42
2023/09/18 12:15:49;;;;;;;3.58;2.40;;;22.90;99.90;;;;;;5079985;28;20031;-42
2023/09/18 12:18:16;;;;;;;3.25;2.20;;;23.00;99.90;;;;;;5085137;28;20024;-43
2023/09/18 12:20:49;;;;;;;2.83;2.20;;;23.10;99.90;;;;;;5085265;28;20419;-43
2023/09/18 12:23:21;;;;;;;2.55;2.20;;;23.20;99.90;;;;;;5084420;28;20042;-43
2023/09/18 12:25:56;;;;;;;3.15;2.00;;;23.30;99.90;;;;;;5085548;28;20035;-43
2023/09/18 12:28:22;;;;;;;2.92;2.15;;;23.40;99.90;;;;;;5084917;28;20040;-43
2023/09/18 12:30:56;;;;;;;3.65;2.38;;;23.40;99.90;;;;;;5084042;28;20024;-43
2023/09/18 12:33:36;;;;;;;2.40;2.20;;;23.40;99.90;;;;;;5084761;28;20028;-42
2023/09/18 12:36:02;;;;;;;2.58;2.15;;;23.40;99.90;;;;;;5084183;28;20069;-42
2023/09/18 12:38:30;;;;;;;2.33;2.13;;;23.50;99.90;;;;;;5084799;28;20111;-43
2023/09/18 12:40:56;;;;;;;2.47;2.28;;;23.60;99.90;;;;;;5084863;28;20457;-43
2023/09/18 12:43:23;;;;;;;2.20;2.00;;;23.60;99.90;;;;;;5085470;28;20019;-42
2023/09/18 12:45:55;;;;;;;2.85;2.10;;;23.60;99.90;;;;;;5085153;28;20656;-42
2023/09/18 12:48:21;;;;;;;;;;;23.70;99.90;;;;;;5074063;28;20837;-42
2023/09/18 12:50:54;;;;;;;2.45;1.92;;;23.70;99.90;;;;;;5084428;28;19948;-43
2023/09/18 12:53:22;;;;;;;2.15;1.90;;;23.60;99.90;;;;;;5084366;28;20020;-44
2023/09/18 12:55:49;;;;;;;2.75;2.25;;;23.50;99.90;;;;;;5083261;28;20027;-43